sim
Sign-in with your pilot id or email,
or register
Callsign
Passwort

Schedule Details

Flight Number: RYR8806 (1)
Departure: Milan Bergamo Il Caravaggio International Airport (LIME) at 05:55
Arrival: Fuerteventura Airport (GCFV) at 10:10
Route: Ryanair Passenger Schedule. Enter filed route here before submitting Pirep.

Weather Information
Getting current METAR information for LIME 160250Z 35004KT CAVOK 03/00 Q1031 NOSIG
Getting current METAR information for GCFV 160300Z AUTO 27006KT 9999 NCD 13/11 Q1017

Schedule Frequency

Route Map